createdAt,value
2022-11-21T00:00:59.144Z,127.50
2022-11-21T00:03:29.564Z,121.80
2022-11-21T00:06:05.967Z,133.20
2022-11-21T00:08:36.520Z,128.50
2022-11-21T00:11:07.509Z,124.60
2022-11-21T00:13:38.414Z,123.60
2022-11-21T00:16:10.188Z,123.40
2022-11-21T00:18:41.848Z,122.70
2022-11-21T00:21:13.822Z,109.80
2022-11-21T00:23:44.612Z,125.60
2022-11-21T00:26:15.885Z,133.20
2022-11-21T00:28:46.287Z,136.10
2022-11-21T00:31:23.912Z,119.80
2022-11-21T00:33:54.533Z,119.00
2022-11-21T00:36:29.132Z,121.10
2022-11-21T00:39:03.951Z,121.70
2022-11-21T00:41:39.132Z,124.50
2022-11-21T00:44:09.855Z,110.60
2022-11-21T00:46:40.655Z,123.60
2022-11-21T00:49:11.577Z,125.20
2022-11-21T00:51:46.563Z,128.10
2022-11-21T00:54:17.433Z,124.50
2022-11-21T00:56:47.925Z,119.70
2022-11-21T00:59:23.618Z,122.80
2022-11-21T01:01:58.304Z,132.40
2022-11-21T01:04:36.300Z,136.30
2022-11-21T01:07:07.271Z,126.90
2022-11-21T01:09:38.388Z,122.80
2022-11-21T01:12:13.733Z,117.80
2022-11-21T01:14:53.077Z,110.50
2022-11-21T01:17:27.849Z,116.20
2022-11-21T01:20:05.855Z,113.70
2022-11-21T01:22:36.840Z,114.00
2022-11-21T01:25:08.491Z,131.50
2022-11-21T01:27:44.243Z,115.90
2022-11-21T01:30:19.727Z,123.00
2022-11-21T01:32:54.366Z,125.20
2022-11-21T01:35:29.244Z,113.00
2022-11-21T01:38:00.096Z,115.70
2022-11-21T01:40:30.850Z,122.10
2022-11-21T01:43:04.501Z,129.70
2022-11-21T01:45:52.557Z,123.40
2022-11-21T01:48:24.209Z,128.80
2022-11-21T01:50:55.446Z,119.30
2022-11-21T01:53:26.719Z,124.80
2022-11-21T01:55:57.222Z,113.10
2022-11-21T01:58:29.441Z,120.40
2022-11-21T02:01:00.819Z,120.90
2022-11-21T02:03:34.129Z,120.90
2022-11-21T02:06:05.269Z,126.90
2022-11-21T02:08:36.317Z,127.80
2022-11-21T02:11:12.512Z,126.80
2022-11-21T02:13:43.342Z,125.50
2022-11-21T02:16:13.835Z,132.50
2022-11-21T02:18:44.747Z,129.60
2022-11-21T02:21:23.187Z,127.30
2022-11-21T02:24:00.469Z,117.80
2022-11-21T02:26:31.624Z,121.50
2022-11-21T02:29:02.454Z,125.50
2022-11-21T02:31:33.191Z,143.00
2022-11-21T02:34:04.198Z,132.70
2022-11-21T02:36:40.942Z,133.50
2022-11-21T02:39:14.601Z,129.50
2022-11-21T02:41:48.865Z,120.80
2022-11-21T02:44:23.580Z,119.40
2022-11-21T02:46:54.298Z,132.80
2022-11-21T02:49:29.020Z,126.90
2022-11-21T02:51:59.582Z,126.10
2022-11-21T02:54:30.459Z,125.40
2022-11-21T02:57:03.970Z,128.70
2022-11-21T02:59:35.320Z,127.50
2022-11-21T03:02:06.301Z,121.80
2022-11-21T03:04:39.448Z,121.40
2022-11-21T03:07:09.903Z,122.70
2022-11-21T03:09:40.617Z,117.80
2022-11-21T03:12:11.645Z,128.70
2022-11-21T03:14:42.477Z,132.70
2022-11-21T03:17:13.315Z,124.90
2022-11-21T03:19:44.052Z,130.40
2022-11-21T03:22:15.399Z,133.60
2022-11-21T03:24:46.133Z,130.30
2022-11-21T03:27:16.724Z,124.00
2022-11-21T03:29:47.391Z,127.20
2022-11-21T03:32:18.734Z,133.50
2022-11-21T03:34:49.130Z,137.50
2022-11-21T03:37:19.790Z,132.20
2022-11-21T03:39:50.421Z,119.00
2022-11-21T03:42:22.318Z,125.50
2022-11-21T03:44:52.708Z,118.00
2022-11-21T03:47:26.010Z,131.00
2022-11-21T03:49:56.356Z,127.90
2022-11-21T03:52:27.611Z,136.00
2022-11-21T03:54:57.999Z,128.40
2022-11-21T03:57:29.148Z,133.70
2022-11-21T03:59:59.614Z,132.80
2022-11-21T04:02:31.029Z,121.00
2022-11-21T04:05:01.348Z,134.20
2022-11-21T04:07:32.341Z,127.20
2022-11-21T04:10:02.701Z,123.90
2022-11-21T04:12:33.841Z,128.50
2022-11-21T04:15:09.246Z,127.30
2022-11-21T04:17:43.095Z,124.80
2022-11-21T04:20:14.263Z,119.10
2022-11-21T04:22:45.284Z,125.10
2022-11-21T04:25:15.647Z,134.80
2022-11-21T04:27:46.381Z,133.60
2022-11-21T04:30:17.132Z,142.70
2022-11-21T04:32:47.755Z,125.70
2022-11-21T04:35:18.236Z,122.00
2022-11-21T04:37:48.896Z,131.30
2022-11-21T04:40:19.594Z,138.00
2022-11-21T04:42:50.390Z,130.40
2022-11-21T04:45:20.698Z,131.90
2022-11-21T04:47:51.791Z,135.40
2022-11-21T04:50:22.219Z,142.60
2022-11-21T04:52:53.683Z,156.60
2022-11-21T04:55:25.421Z,145.20
2022-11-21T04:57:57.292Z,153.70
2022-11-21T05:00:27.765Z,136.00
2022-11-21T05:03:02.283Z,136.80
2022-11-21T05:05:32.891Z,137.70
2022-11-21T05:08:03.816Z,135.10
2022-11-21T05:10:54.601Z,146.20
2022-11-21T05:13:25.747Z,142.00
2022-11-21T05:15:58.745Z,138.30
2022-11-21T05:18:29.611Z,126.90
2022-11-21T05:21:00.405Z,124.50
2022-11-21T05:23:31.105Z,127.80
2022-11-21T05:26:02.078Z,130.40
2022-11-21T05:28:33.053Z,137.40
2022-11-21T05:31:03.440Z,149.90
2022-11-21T05:33:34.593Z,145.10
2022-11-21T05:36:05.629Z,151.20
2022-11-21T05:38:36.608Z,147.90
2022-11-21T05:41:07.354Z,133.60
2022-11-21T05:43:46.873Z,135.30
2022-11-21T05:46:17.728Z,137.50
2022-11-21T05:48:49.117Z,129.60
2022-11-21T05:51:19.541Z,138.80
2022-11-21T05:53:50.316Z,141.90
2022-11-21T05:56:20.902Z,142.40
2022-11-21T05:58:51.529Z,143.10
2022-11-21T06:01:35.924Z,132.60
2022-11-21T06:04:07.344Z,130.60
2022-11-21T06:06:37.657Z,127.00
2022-11-21T06:09:08.922Z,119.40
2022-11-21T06:11:39.185Z,116.00
2022-11-21T06:14:10.169Z,114.30
2022-11-21T06:16:40.496Z,147.10
2022-11-21T06:19:11.273Z,133.00
2022-11-21T06:21:41.699Z,137.00
2022-11-21T06:24:14.480Z,153.50
2022-11-21T06:26:47.426Z,132.10
2022-11-21T06:29:18.397Z,136.10
2022-11-21T06:31:48.745Z,117.80
2022-11-21T06:34:19.628Z,127.10
2022-11-21T06:36:50.978Z,123.60
2022-11-21T06:39:21.912Z,127.00
2022-11-21T06:41:52.235Z,125.50
2022-11-21T06:44:23.071Z,135.80
2022-11-21T06:46:53.357Z,131.30
2022-11-21T06:49:24.224Z,129.60
2022-11-21T06:51:55.055Z,124.40
2022-11-21T06:54:26.003Z,131.70
2022-11-21T06:56:56.321Z,116.80
2022-11-21T06:59:27.262Z,113.50
2022-11-21T07:01:57.790Z,121.60
2022-11-21T07:04:28.890Z,126.10
2022-11-21T07:06:59.618Z,117.10
2022-11-21T07:09:33.778Z,115.80
2022-11-21T07:12:18.740Z,123.10
2022-11-21T07:14:49.616Z,120.30
2022-11-21T07:17:20.006Z,110.70
2022-11-21T07:19:50.788Z,119.70
2022-11-21T07:22:21.749Z,112.60
2022-11-21T07:24:52.513Z,120.70
2022-11-21T07:27:23.041Z,111.80
2022-11-21T07:29:53.772Z,124.40
2022-11-21T07:32:24.066Z,120.50
2022-11-21T07:34:55.179Z,116.10
2022-11-21T07:37:25.558Z,125.60
2022-11-21T07:39:56.091Z,128.00
2022-11-21T07:42:26.828Z,138.70
2022-11-21T07:44:57.558Z,135.90
2022-11-21T07:47:28.078Z,124.70
2022-11-21T07:49:58.840Z,133.30
2022-11-21T07:52:30.877Z,122.30
2022-11-21T07:55:02.722Z,130.60
2022-11-21T07:57:34.138Z,133.80
2022-11-21T08:00:05.289Z,131.20
2022-11-21T08:02:36.216Z,133.60
2022-11-21T08:05:09.877Z,111.40
2022-11-21T08:07:40.680Z,100.30
2022-11-21T08:10:11.679Z,91.80
2022-11-21T08:12:42.392Z,97.20
2022-11-21T08:15:13.836Z,89.70
2022-11-21T08:17:48.738Z,91.10
2022-11-21T08:20:19.695Z,92.70
2022-11-21T08:22:50.484Z,90.80
2022-11-21T08:25:21.163Z,85.00
2022-11-21T08:27:51.724Z,87.00
2022-11-21T08:30:22.430Z,87.70
2022-11-21T08:32:53.473Z,89.40
2022-11-21T08:35:24.351Z,84.60
2022-11-21T08:37:58.429Z,94.20
2022-11-21T08:40:30.183Z,91.50
2022-11-21T08:43:01.223Z,97.90
2022-11-21T08:45:32.387Z,84.30
2022-11-21T08:48:03.160Z,91.20
2022-11-21T08:50:33.929Z,82.40
2022-11-21T08:53:04.809Z,89.40
2022-11-21T08:55:35.922Z,99.60
2022-11-21T08:58:06.534Z,91.60
2022-11-21T09:00:39.118Z,84.10
2022-11-21T09:03:14.234Z,89.10
2022-11-21T09:05:46.342Z,79.20
2022-11-21T09:08:17.456Z,83.10
2022-11-21T09:10:48.084Z,85.20
2022-11-21T09:13:18.621Z,86.30
2022-11-21T09:16:20.098Z,88.70
2022-11-21T09:18:52.876Z,89.20
2022-11-21T09:21:23.728Z,74.50
2022-11-21T09:23:54.491Z,76.70
2022-11-21T09:26:25.261Z,88.00
2022-11-21T09:28:57.522Z,78.20
2022-11-21T09:31:28.005Z,72.10
2022-11-21T09:33:58.918Z,62.90
2022-11-21T09:36:29.760Z,62.30
2022-11-21T09:39:00.658Z,64.50
2022-11-21T09:41:51.565Z,77.40
2022-11-21T09:44:27.506Z,71.30
2022-11-21T09:47:02.140Z,71.30
2022-11-21T09:49:36.636Z,68.60
2022-11-21T09:52:07.606Z,64.10
2022-11-21T09:54:43.366Z,69.00
2022-11-21T09:57:16.592Z,75.70
2022-11-21T09:59:47.810Z,83.10
2022-11-21T10:02:19.453Z,76.40
2022-11-21T10:04:50.592Z,65.70
2022-11-21T10:07:22.996Z,65.80
2022-11-21T10:10:04.541Z,66.20
2022-11-21T10:12:38.238Z,71.00
2022-11-21T10:15:25.260Z,67.80
2022-11-21T10:18:14.902Z,69.30
2022-11-21T10:20:51.757Z,69.80
2022-11-21T10:23:31.773Z,70.00
2022-11-21T10:26:09.018Z,73.10
2022-11-21T10:28:42.826Z,64.20
2022-11-21T10:31:14.616Z,65.40
2022-11-21T10:33:45.457Z,69.20
2022-11-21T10:36:21.122Z,71.50
2022-11-21T10:38:53.779Z,65.60
2022-11-21T10:41:25.678Z,62.80
2022-11-21T10:44:18.490Z,60.00
2022-11-21T10:46:57.130Z,61.20
2022-11-21T10:49:29.687Z,69.30
2022-11-21T10:52:03.354Z,72.60
2022-11-21T10:54:34.080Z,66.30
2022-11-21T10:57:08.377Z,66.20
2022-11-21T10:59:39.065Z,68.10
2022-11-21T11:05:20.744Z,61.80
2022-11-21T11:10:27.468Z,67.00
2022-11-21T11:13:45.049Z,68.90
2022-11-21T11:16:08.583Z,63.00
2022-11-21T11:18:41.159Z,59.70
2022-11-21T11:21:17.058Z,73.20
2022-11-21T11:23:47.931Z,69.20
2022-11-21T11:26:26.183Z,65.20
2022-11-21T11:29:06.187Z,66.40
2022-11-21T11:31:42.583Z,66.20
2022-11-21T11:34:16.487Z,69.50
2022-11-21T11:36:55.927Z,70.00
2022-11-21T11:39:36.769Z,67.20
2022-11-21T11:42:34.277Z,62.40
2022-11-21T11:45:33.732Z,65.70
2022-11-21T11:48:09.195Z,61.00
2022-11-21T11:50:42.379Z,73.90
2022-11-21T11:53:15.686Z,70.40
2022-11-21T11:55:47.971Z,69.60
2022-11-21T11:58:23.089Z,66.20
2022-11-21T12:00:56.949Z,70.70
2022-11-21T12:03:31.945Z,79.20
2022-11-21T12:06:09.169Z,81.80
2022-11-21T12:08:53.231Z,69.10
2022-11-21T12:11:44.478Z,71.70
2022-11-21T12:14:40.582Z,71.40
2022-11-21T12:17:11.624Z,62.50
2022-11-21T12:19:42.465Z,58.90
2022-11-21T12:22:13.091Z,63.70
2022-11-21T12:24:44.033Z,72.90
2022-11-21T12:27:22.448Z,73.80
2022-11-21T12:30:00.059Z,70.50
2022-11-21T12:32:37.409Z,70.80
2022-11-21T12:35:17.188Z,63.70
2022-11-21T12:37:54.162Z,62.90
2022-11-21T12:40:30.926Z,62.30
2022-11-21T12:43:08.424Z,61.40
2022-11-21T12:45:41.424Z,65.40
2022-11-21T12:48:47.180Z,71.20
2022-11-21T12:51:51.944Z,70.20
2022-11-21T12:54:33.894Z,70.80
2022-11-21T12:57:10.346Z,69.10
2022-11-21T12:59:46.307Z,77.40
2022-11-21T13:02:23.486Z,74.50
2022-11-21T13:04:55.036Z,68.10
2022-11-21T13:07:26.781Z,67.30
2022-11-21T13:09:58.389Z,70.60
2022-11-21T13:12:32.361Z,73.50
2022-11-21T13:15:07.595Z,65.20
2022-11-21T13:17:45.462Z,74.80
2022-11-21T13:20:19.508Z,74.30
2022-11-21T13:22:54.564Z,76.50
2022-11-21T13:25:39.420Z,77.30
2022-11-21T13:28:30.152Z,78.60
2022-11-21T13:31:01.169Z,66.60
2022-11-21T13:33:48.488Z,72.70
2022-11-21T13:36:42.071Z,76.80
2022-11-21T13:39:35.399Z,70.10
2022-11-21T13:42:33.173Z,67.60
2022-11-21T13:45:21.669Z,73.70
2022-11-21T13:47:59.855Z,79.40
2022-11-21T13:50:38.213Z,72.70
2022-11-21T13:53:18.529Z,68.90
2022-11-21T13:55:56.569Z,70.90
2022-11-21T13:58:36.981Z,63.50
2022-11-21T14:01:17.315Z,60.50
2022-11-21T14:03:56.416Z,69.80
2022-11-21T14:06:44.727Z,75.20
2022-11-21T14:09:22.213Z,66.50
2022-11-21T14:11:54.726Z,78.00
2022-11-21T14:14:30.007Z,73.60
2022-11-21T14:17:06.623Z,67.00
2022-11-21T14:19:37.411Z,61.50
2022-11-21T14:22:15.368Z,61.70
2022-11-21T14:24:47.203Z,65.40
2022-11-21T14:27:26.397Z,71.90
2022-11-21T14:29:57.440Z,74.00
2022-11-21T14:32:31.856Z,73.20
2022-11-21T14:35:19.815Z,73.70
2022-11-21T14:37:51.039Z,62.00
2022-11-21T14:40:25.327Z,67.10
2022-11-21T14:42:56.047Z,65.40
2022-11-21T14:45:27.343Z,68.60
2022-11-21T14:47:57.715Z,67.00
2022-11-21T14:50:29.250Z,79.10
2022-11-21T14:53:00.700Z,69.50
2022-11-21T14:55:32.807Z,68.80
2022-11-21T14:58:04.996Z,63.90
2022-11-21T15:03:26.385Z,67.80
2022-11-21T15:06:04.626Z,67.90
2022-11-21T15:11:31.563Z,69.30
2022-11-21T15:14:19.776Z,76.60
2022-11-21T15:16:51.556Z,66.40
2022-11-21T15:19:23.797Z,69.10
2022-11-21T15:21:55.329Z,61.80
2022-11-21T15:24:33.476Z,62.60
2022-11-21T15:27:24.051Z,63.70
2022-11-21T15:30:03.382Z,64.10
2022-11-21T15:32:34.193Z,69.10
2022-11-21T15:35:18.093Z,68.30
2022-11-21T15:37:51.125Z,64.10
2022-11-21T15:40:22.120Z,68.60
2022-11-21T15:42:52.812Z,67.40
2022-11-21T15:45:26.203Z,68.70
2022-11-21T15:47:57.127Z,71.80
2022-11-21T15:50:27.590Z,83.20
2022-11-21T15:52:58.302Z,66.90
2022-11-21T15:55:30.443Z,66.10
2022-11-21T15:58:01.489Z,70.70
2022-11-21T16:00:32.028Z,65.20
2022-11-21T16:03:02.672Z,72.30
2022-11-21T16:05:33.539Z,69.30
2022-11-21T16:08:04.774Z,73.50
2022-11-21T16:10:36.351Z,66.00
2022-11-21T16:13:07.480Z,68.10
2022-11-21T16:15:38.001Z,65.10
2022-11-21T16:18:09.414Z,65.50
2022-11-21T16:20:39.943Z,66.90
2022-11-21T16:23:11.587Z,71.60
2022-11-21T16:25:52.681Z,78.00
2022-11-21T16:28:23.506Z,74.80
2022-11-21T16:30:54.413Z,75.10
2022-11-21T16:33:27.295Z,72.40
2022-11-21T16:35:58.109Z,68.80
2022-11-21T16:38:29.419Z,75.40
2022-11-21T16:41:00.666Z,73.90
2022-11-21T16:43:31.493Z,68.10
2022-11-21T16:46:07.677Z,64.80
2022-11-21T16:48:38.487Z,71.10
2022-11-21T16:51:13.639Z,64.80
2022-11-21T16:53:44.665Z,66.50
2022-11-21T16:56:15.507Z,58.40
2022-11-21T16:58:47.192Z,61.30
2022-11-21T17:01:18.577Z,64.80
2022-11-21T17:03:50.173Z,62.50
2022-11-21T17:06:22.802Z,66.00
2022-11-21T17:11:24.278Z,65.80
2022-11-21T17:13:54.949Z,67.60
2022-11-21T17:16:25.800Z,55.80
2022-11-21T17:18:56.911Z,60.30
2022-11-21T17:21:28.259Z,64.20
2022-11-21T17:23:59.053Z,58.80
2022-11-21T17:26:30.951Z,64.10
2022-11-21T17:29:03.650Z,67.60
2022-11-21T17:31:34.671Z,66.70
2022-11-21T17:34:05.253Z,68.20
2022-11-21T17:36:35.832Z,64.30
2022-11-21T17:39:06.566Z,65.40
2022-11-21T17:41:38.313Z,60.30
2022-11-21T17:44:09.154Z,61.70
2022-11-21T17:46:40.105Z,60.90
2022-11-21T17:49:12.374Z,62.70
2022-11-21T17:51:43.346Z,67.50
2022-11-21T17:54:13.869Z,72.50
2022-11-21T17:56:48.131Z,67.40
2022-11-21T17:59:22.164Z,66.60
2022-11-21T18:01:53.279Z,63.80
2022-11-21T18:04:24.646Z,60.40
2022-11-21T18:06:55.742Z,62.90
2022-11-21T18:09:26.722Z,64.00
2022-11-21T18:11:58.125Z,67.60
2022-11-21T18:14:29.136Z,71.00
2022-11-21T18:17:00.211Z,68.30
2022-11-21T18:19:30.888Z,62.80
2022-11-21T18:22:01.621Z,59.90
2022-11-21T18:24:32.793Z,62.10
2022-11-21T18:27:03.799Z,62.30
2022-11-21T18:29:36.552Z,64.40
2022-11-21T18:32:08.249Z,66.10
2022-11-21T18:34:39.069Z,63.10
2022-11-21T18:37:10.875Z,66.00
2022-11-21T18:39:41.271Z,68.20
2022-11-21T18:42:12.000Z,61.00
2022-11-21T18:44:42.721Z,53.70
2022-11-21T18:47:20.530Z,54.10
2022-11-21T18:49:51.460Z,62.20
2022-11-21T18:52:22.403Z,63.30
2022-11-21T18:54:53.125Z,66.90
2022-11-21T18:57:24.289Z,61.30
2022-11-21T18:59:54.874Z,63.00
2022-11-21T19:02:25.564Z,55.10
2022-11-21T19:04:56.031Z,62.10
2022-11-21T19:07:26.684Z,53.90
2022-11-21T19:10:20.347Z,60.00
2022-11-21T19:12:47.763Z,64.80
2022-11-21T19:15:18.551Z,65.20
2022-11-21T19:17:49.129Z,64.40
2022-11-21T19:20:19.800Z,64.70
2022-11-21T19:22:50.506Z,61.90
2022-11-21T19:25:21.294Z,56.90
2022-11-21T19:27:51.898Z,63.30
2022-11-21T19:30:22.384Z,58.80
2022-11-21T19:32:53.087Z,71.40
2022-11-21T19:35:24.801Z,62.10
2022-11-21T19:37:55.764Z,62.90
2022-11-21T19:40:46.678Z,56.40
2022-11-21T19:43:17.312Z,62.00
2022-11-21T19:45:48.544Z,57.60
2022-11-21T19:48:19.052Z,57.40
2022-11-21T19:50:58.567Z,67.50
2022-11-21T19:53:29.763Z,66.70
2022-11-21T19:56:00.252Z,66.20
2022-11-21T19:58:32.304Z,59.20
2022-11-21T20:01:07.876Z,58.50
2022-11-21T20:03:38.841Z,62.10
2022-11-21T20:06:10.553Z,61.10
2022-11-21T20:08:40.936Z,56.00
2022-11-21T20:11:12.879Z,58.20
2022-11-21T20:13:44.607Z,61.80
2022-11-21T20:16:22.107Z,66.00
2022-11-21T20:18:57.374Z,73.60
2022-11-21T20:21:28.206Z,58.60
2022-11-21T20:23:59.139Z,61.70
2022-11-21T20:26:30.081Z,65.30
2022-11-21T20:29:04.816Z,58.20
2022-11-21T20:31:37.088Z,61.20
2022-11-21T20:34:08.655Z,61.20
2022-11-21T20:36:40.250Z,59.50
2022-11-21T20:39:13.889Z,55.70
2022-11-21T20:41:45.495Z,63.30
2022-11-21T20:47:08.839Z,62.90
2022-11-21T20:49:39.871Z,65.30
2022-11-21T20:55:01.919Z,61.50
2022-11-21T20:57:32.573Z,61.80
2022-11-21T21:00:03.447Z,60.30
2022-11-21T21:02:34.416Z,59.10
2022-11-21T21:05:06.207Z,56.60
2022-11-21T21:07:37.130Z,53.50
2022-11-21T21:10:09.898Z,60.80
2022-11-21T21:12:43.200Z,65.10
2022-11-21T21:15:18.305Z,64.10
2022-11-21T21:17:48.950Z,60.10
2022-11-21T21:20:19.757Z,58.20
2022-11-21T21:22:50.313Z,55.30
2022-11-21T21:25:21.046Z,60.20
2022-11-21T21:27:52.081Z,60.40
2022-11-21T21:30:22.924Z,57.40
2022-11-21T21:32:53.460Z,55.90
2022-11-21T21:35:24.175Z,60.40
2022-11-21T21:37:55.265Z,63.20
2022-11-21T21:40:26.069Z,60.90
2022-11-21T21:42:56.605Z,62.60
2022-11-21T21:45:27.471Z,53.90
2022-11-21T21:47:58.158Z,66.60
2022-11-21T21:50:29.197Z,57.60
2022-11-21T21:53:01.254Z,61.10
2022-11-21T21:55:32.514Z,62.60
2022-11-21T21:58:03.092Z,64.90
2022-11-21T22:00:34.238Z,53.90
2022-11-21T22:03:05.115Z,57.60
2022-11-21T22:05:35.801Z,65.50
2022-11-21T22:08:07.107Z,64.10
2022-11-21T22:10:37.898Z,64.00
2022-11-21T22:13:08.619Z,58.20
2022-11-21T22:15:39.544Z,58.00
2022-11-21T22:18:10.331Z,54.90
2022-11-21T22:20:40.820Z,59.80
2022-11-21T22:23:11.192Z,68.20
2022-11-21T22:25:41.971Z,60.30
2022-11-21T22:28:12.955Z,56.70
2022-11-21T22:30:43.792Z,55.80
2022-11-21T22:33:14.335Z,60.70
2022-11-21T22:35:45.065Z,54.20
2022-11-21T22:38:16.567Z,54.70
2022-11-21T22:40:47.551Z,55.50
2022-11-21T22:43:18.274Z,60.40
2022-11-21T22:45:48.948Z,65.00
2022-11-21T22:48:19.348Z,58.10
2022-11-21T22:50:50.169Z,61.70
2022-11-21T22:53:20.911Z,64.30
2022-11-21T22:55:59.046Z,67.60
2022-11-21T22:58:31.689Z,66.40
2022-11-21T23:01:02.465Z,65.90
2022-11-21T23:03:33.977Z,66.90
2022-11-21T23:06:05.386Z,61.00
2022-11-21T23:08:37.208Z,62.60
2022-11-21T23:11:08.689Z,55.00
2022-11-21T23:13:40.803Z,53.80
2022-11-21T23:16:12.240Z,59.70
2022-11-21T23:18:43.546Z,62.50
2022-11-21T23:21:15.041Z,65.00
2022-11-21T23:23:45.480Z,70.50
2022-11-21T23:26:16.397Z,66.80
2022-11-21T23:28:46.940Z,59.80
2022-11-21T23:31:17.479Z,62.40
2022-11-21T23:33:48.199Z,58.40
2022-11-21T23:36:19.252Z,59.00
2022-11-21T23:38:49.663Z,67.90
2022-11-21T23:41:20.342Z,66.30
2022-11-21T23:43:50.820Z,67.80
2022-11-21T23:46:22.135Z,63.20
2022-11-21T23:48:52.696Z,64.10
2022-11-21T23:51:23.327Z,58.30
2022-11-21T23:53:54.242Z,52.00
2022-11-21T23:56:24.998Z,60.40
2022-11-21T23:58:55.729Z,62.50
